Fiorela — D5MK2 — position and weather

sailwx.info

Track history (hours):
 
Tides and Currents Weather Stations Pressure Air Temp Water Temp Dewpoint Dewpoint Depression Visibility Wind Speed Wind Dir Waves Ship Positions

Fiorela

Last reported at 2018-Jun-25 15:30 UTC. Time now 2018-Jun-25 15:54 UTC.
Position N 59°51' E 025°10'.

Length 229 m; draft 12.7 m.

Type: Cargo ship. MMSI: 636017716.

Date/timePositionNaut miles runAvg speedWind from/ knotsBaromVisibWave heightAir tempDewpointWater temp
2018-Jun-25 15:30N 59°51' E 025°10'612.3
2018-Jun-25 15:00N 59°53' E 025°22'612.3
2018-Jun-25 14:30N 59°54' E 025°34'812.3
2018-Jun-25 13:50N 59°56' E 025°50'412.6
2018-Jun-25 13:30N 59°57' E 025°58'914.0
2018-Jun-25 12:50N 59°59' E 026°16'3 8.8
2018-Jun-25 12:30N 59°60' E 026°21'612.1
2018-Jun-25 12:00N 60°01' E 026°33'612.3
2018-Jun-25 11:31N 60°01' E 026°45'612.2
2018-Jun-25 11:00N 59°59' E 026°58'611.4
2018-Jun-25 10:30N 60°01' E 027°09'611.7
2018-Jun-25 10:00N 60°04' E 027°19'2 4.0
2018-Jun-25 09:30N 60°05' E 027°22'5 9.3
2018-Jun-25 09:00N 60°07' E 027°30'612.1
2018-Jun-25 08:30N 60°10' E 027°41'611.3
2018-Jun-25 08:00N 60°11' E 027°52'612.4
2018-Jun-25 07:30N 60°10' E 028°04'612.0
2018-Jun-25 06:59N 60°08' E 028°16'612.3
2018-Jun-25 06:30N 60°05' E 028°25'611.3
2018-Jun-25 06:00N 60°03' E 028°36'510.0
2018-Jun-25 05:31N 59°58' E 028°36'4 8.2
2018-Jun-25 05:00N 59°54' E 028°32'611.2
2018-Jun-25 04:30N 59°50' E 028°26'510.5
2018-Jun-25 04:00N 59°44' E 028°25'3 6.3
2018-Jun-25 03:31N 59°41' E 028°25'0 0.5
2018-Jun-25 03:01N 59°41' E 028°25'0 0.0
2018-Jun-25 02:31N 59°41' E 028°25'0 0.0
2018-Jun-25 02:00N 59°41' E 028°25'0 0.0
2018-Jun-25 01:21N 59°41' E 028°25'0 0.0
2018-Jun-25 01:00N 59°41' E 028°25'0 0.0
2018-Jun-25 00:21N 59°41' E 028°25'0 0.0
2018-Jun-24 23:51N 59°41' E 028°25'0 0.0
2018-Jun-24 23:21N 59°41' E 028°25'0 0.0
2018-Jun-24 22:54N 59°41' E 028°25'0 0.0
2018-Jun-24 22:24N 59°41' E 028°25'0 0.0
2018-Jun-24 21:54N 59°41' E 028°25'0 0.0
2018-Jun-24 21:27N 59°41' E 028°25'0 0.0
2018-Jun-24 20:57N 59°41' E 028°25'0 0.0
2018-Jun-24 20:27N 59°41' E 028°25'0 0.0
2018-Jun-24 19:57N 59°41' E 028°25'0 0.0
2018-Jun-24 19:27N 59°41' E 028°25'0 0.0
2018-Jun-24 18:57N 59°41' E 028°25'0 0.0
2018-Jun-24 18:27N 59°41' E 028°25'0 0.0
2018-Jun-24 17:57N 59°41' E 028°25'0 0.0
2018-Jun-24 17:30N 59°41' E 028°25'0 0.0
2018-Jun-24 17:00N 59°41' E 028°25'0 0.0
2018-Jun-24 16:30N 59°41' E 028°25'0 0.0
2018-Jun-24 16:00N 59°41' E 028°25'0 0.0
2018-Jun-24 15:30N 59°41' E 028°25'0 0.0
2018-Jun-24 15:00N 59°41' E 028°25'0 0.0
2018-Jun-24 14:30N 59°41' E 028°25'0 0.0
2018-Jun-24 14:00N 59°41' E 028°25'0 0.0
2018-Jun-24 13:30N 59°41' E 028°25'0 0.0
2018-Jun-24 13:00N 59°41' E 028°25'0 0.0
2018-Jun-24 12:30N 59°41' E 028°25'0 0.0
2018-Jun-24 12:00N 59°41' E 028°25'0 0.0
2018-Jun-24 11:30N 59°41' E 028°25'0 0.0
2018-Jun-24 10:58N 59°41' E 028°25'0 0.0
2018-Jun-24 10:21N 59°41' E 028°25'0 0.0
2018-Jun-24 09:54N 59°41' E 028°25'0 0.0
2018-Jun-24 09:29N 59°41' E 028°25'0 0.0
2018-Jun-24 09:00N 59°41' E 028°25'0 0.0
2018-Jun-24 08:29N 59°41' E 028°25'0 0.0
2018-Jun-24 07:58N 59°41' E 028°25'0 0.0
2018-Jun-24 07:29N 59°41' E 028°25'0 0.0
2018-Jun-24 07:00N 59°41' E 028°25'0 0.0
2018-Jun-24 06:24N 59°41' E 028°25'0 0.0
2018-Jun-24 05:57N 59°41' E 028°25'0 0.0
2018-Jun-24 05:28N 59°41' E 028°25'0 0.0
2018-Jun-24 05:00N 59°41' E 028°25'0 0.0
2018-Jun-24 04:30N 59°41' E 028°25'0 0.0
2018-Jun-24 04:00N 59°41' E 028°25'0 0.0
2018-Jun-24 03:30N 59°41' E 028°25'0 0.0
2018-Jun-24 03:00N 59°41' E 028°25'0 0.0
2018-Jun-24 02:30N 59°41' E 028°25'0 0.0
2018-Jun-24 02:00N 59°41' E 028°25'0 0.0
2018-Jun-24 01:28N 59°41' E 028°25'0 0.0
2018-Jun-24 00:57N 59°41' E 028°25'0 0.0
2018-Jun-24 00:30N 59°41' E 028°25'0 0.0
2018-Jun-24 00:00N 59°41' E 028°25'0 0.0
2018-Jun-23 23:30N 59°41' E 028°25'0 0.0
2018-Jun-23 23:00N 59°41' E 028°25'0 0.0
2018-Jun-23 22:30N 59°41' E 028°25'0 0.0
2018-Jun-23 22:00N 59°41' E 028°25'0 0.0
2018-Jun-23 21:21N 59°41' E 028°25'0 0.0
2018-Jun-23 21:00N 59°41' E 028°25'0 0.0
2018-Jun-23 20:30N 59°41' E 028°25'0 0.0
2018-Jun-23 19:54N 59°41' E 028°25'0 0.0
2018-Jun-23 19:24N 59°41' E 028°25'0 0.0
2018-Jun-23 18:54N 59°41' E 028°25'0 0.0
2018-Jun-23 18:24N 59°41' E 028°25'0 0.0
2018-Jun-23 17:54N 59°41' E 028°25'0 0.0
2018-Jun-23 17:24N 59°41' E 028°25'0 0.0
2018-Jun-23 16:57N 59°41' E 028°25'0 0.0
2018-Jun-23 16:27N 59°41' E 028°25'0 0.0
2018-Jun-23 15:54N 59°41' E 028°25'0 0.0
2018-Jun-23 15:27N 59°41' E 028°25'0 0.0
2018-Jun-23 14:57N 59°41' E 028°25'0 0.0
2018-Jun-23 14:27N 59°41' E 028°25'0 0.0
2018-Jun-23 14:00N 59°41' E 028°25'0 0.0
2018-Jun-23 13:30N 59°41' E 028°25'0 0.0
2018-Jun-23 13:00N 59°41' E 028°25'0 0.0
2018-Jun-23 12:30N 59°41' E 028°25'0 0.0
2018-Jun-23 12:00N 59°41' E 028°25'0 0.0
2018-Jun-23 11:30N 59°41' E 028°25'0 0.0
2018-Jun-23 11:00N 59°41' E 028°25'0 0.0
2018-Jun-23 10:30N 59°41' E 028°25'0 0.0
2018-Jun-23 09:52N 59°41' E 028°25'0 0.0
2018-Jun-23 09:30N 59°41' E 028°25'0 0.0
2018-Jun-23 09:00N 59°41' E 028°25'0 0.0
2018-Jun-23 08:30N 59°41' E 028°25'0 0.0
2018-Jun-23 08:00N 59°41' E 028°25'0 0.0
2018-Jun-23 07:21N 59°41' E 028°25'0 0.0
2018-Jun-23 06:51N 59°41' E 028°25'0 0.0
2018-Jun-23 06:24N 59°41' E 028°25'0 0.0
2018-Jun-23 05:51N 59°41' E 028°25'0 0.0
2018-Jun-23 05:24N 59°41' E 028°25'0 0.0
2018-Jun-23 04:51N 59°41' E 028°25'0 0.0
2018-Jun-23 04:24N 59°41' E 028°25'0 0.0
2018-Jun-23 03:54N 59°41' E 028°25'0 0.0
2018-Jun-23 03:27N 59°41' E 028°25'0 0.0
2018-Jun-23 02:57N 59°41' E 028°25'0 0.0
2018-Jun-23 02:24N 59°41' E 028°25'0 0.0
2018-Jun-23 01:57N 59°41' E 028°25'0 0.0
2018-Jun-23 01:27N 59°41' E 028°25'0 0.0
2018-Jun-23 00:57N 59°41' E 028°25'0 0.0
2018-Jun-23 00:30N 59°41' E 028°25'0 0.0
2018-Jun-23 00:00N 59°41' E 028°25'0 0.0
2018-Jun-22 23:27N 59°41' E 028°25'0 0.0
2018-Jun-22 23:00N 59°41' E 028°25'0 0.0
2018-Jun-22 22:30N 59°41' E 028°25'0 0.0
2018-Jun-22 22:00N 59°41' E 028°25'0 0.0
2018-Jun-22 21:30N 59°41' E 028°25'0 0.0
2018-Jun-22 21:00N 59°41' E 028°25'0 0.0
2018-Jun-22 20:27N 59°41' E 028°25'0 0.0
2018-Jun-22 20:00N 59°41' E 028°25'0 0.0
2018-Jun-22 19:30N 59°41' E 028°25'0 0.0
2018-Jun-22 19:00N 59°41' E 028°25'1 1.5
2018-Jun-22 18:30N 59°42' E 028°24'4 8.4
2018-Jun-22 18:00N 59°46' E 028°24'510.7
2018-Jun-22 17:31N 59°51' E 028°26'5 9.3
2018-Jun-22 17:00N 59°55' E 028°32'3 7.0
2018-Jun-22 16:30N 59°57' E 028°37'1 1.3
2018-Jun-22 15:59N 59°57' E 028°38'0 0.0
2018-Jun-22 15:29N 59°57' E 028°38'0 0.0
2018-Jun-22 14:59N 59°57' E 028°38'0 0.1
2018-Jun-22 14:30N 59°57' E 028°38'0 0.1
2018-Jun-22 13:59N 59°57' E 028°38'0 0.0
2018-Jun-22 13:29N 59°57' E 028°38'0 0.0
2018-Jun-22 12:57N 59°57' E 028°38'0 0.1
2018-Jun-22 12:29N 59°57' E 028°38'0 0.0
2018-Jun-22 11:59N 59°57' E 028°38'0 0.0
2018-Jun-22 11:26N 59°57' E 028°38'0 0.0
2018-Jun-22 10:59N 59°57' E 028°38'0 0.0
2018-Jun-22 10:27N 59°57' E 028°38'0 0.0
2018-Jun-22 10:00N 59°57' E 028°38'0 0.0
2018-Jun-22 09:30N 59°57' E 028°38'0 0.0
2018-Jun-22 08:59N 59°57' E 028°38'0 0.0
2018-Jun-22 08:28N 59°57' E 028°38'0 0.0
2018-Jun-22 07:58N 59°57' E 028°38'0 0.0
2018-Jun-22 07:30N 59°57' E 028°38'0 0.0
2018-Jun-22 07:00N 59°57' E 028°38'0 0.0
2018-Jun-22 06:27N 59°57' E 028°38'0 0.0
2018-Jun-22 06:00N 59°57' E 028°38'0 0.0
2018-Jun-22 05:29N 59°57' E 028°38'0 0.0
2018-Jun-22 05:00N 59°57' E 028°38'0 0.1
2018-Jun-22 04:29N 59°57' E 028°38'0 0.0
2018-Jun-22 03:59N 59°57' E 028°38'0 0.1
2018-Jun-22 03:29N 59°57' E 028°38'0 0.3
2018-Jun-22 02:59N 59°57' E 028°38'0 0.1
2018-Jun-22 02:29N 59°57' E 028°38'0 0.0
2018-Jun-22 01:59N 59°57' E 028°38'0 0.0
2018-Jun-22 01:29N 59°57' E 028°38'0 0.0
2018-Jun-22 00:59N 59°57' E 028°38'0 0.0
2018-Jun-22 00:29N 59°57' E 028°38'0 0.0
2018-Jun-22 00:00N 59°57' E 028°38'0 0.0
2018-Jun-21 23:29N 59°57' E 028°38'0 0.0
2018-Jun-21 22:57N 59°57' E 028°38'0 0.1
2018-Jun-21 22:26N 59°57' E 028°38'0 0.0
2018-Jun-21 21:59N 59°57' E 028°38'0 0.1
2018-Jun-21 21:23N 59°57' E 028°38'0 0.2
2018-Jun-21 21:01N 59°57' E 028°38'0 0.0
2018-Jun-21 20:24N 59°57' E 028°38'0 0.1
2018-Jun-21 19:53N 59°57' E 028°38'0 0.0
2018-Jun-21 19:29N 59°57' E 028°38'0 0.0
2018-Jun-21 18:56N 59°57' E 028°38'0 0.1
2018-Jun-21 18:28N 59°57' E 028°38'0 0.0
2018-Jun-21 17:56N 59°57' E 028°38'0 0.0
2018-Jun-21 17:30N 59°57' E 028°38'0 0.1
2018-Jun-21 16:59N 59°57' E 028°38'0 0.0
2018-Jun-21 16:26N 59°57' E 028°38'0 0.1
2018-Jun-21 15:59N 59°57' E 028°38'0 0.1
2018-Jun-21 15:29N 59°57' E 028°38'0 0.1
2018-Jun-21 14:59N 59°57' E 028°38'0 0.0
2018-Jun-21 14:29N 59°57' E 028°38'0 0.0
2018-Jun-21 14:01N 59°57' E 028°38'0 0.0
2018-Jun-21 13:29N 59°57' E 028°38'0 0.0
2018-Jun-21 13:00N 59°57' E 028°38'0 0.0
2018-Jun-21 12:29N 59°57' E 028°38'0 0.0
2018-Jun-21 11:59N 59°57' E 028°38'0 0.0
2018-Jun-21 11:29N 59°57' E 028°38'0 0.0
2018-Jun-21 10:59N 59°57' E 028°38'0 0.0
2018-Jun-21 10:29N 59°57' E 028°38'0 0.0
2018-Jun-21 09:59N 59°57' E 028°38'0 0.1
2018-Jun-21 09:29N 59°57' E 028°38'0 0.0
2018-Jun-21 08:50N 59°57' E 028°38'0 0.1
2018-Jun-21 08:26N 59°57' E 028°38'0 0.2
2018-Jun-21 07:59N 59°57' E 028°38'0 0.0
2018-Jun-21 07:25N 59°57' E 028°38'0 0.1
2018-Jun-21 07:00N 59°57' E 028°38'0 0.0
2018-Jun-21 06:28N 59°57' E 028°38'0 0.0
2018-Jun-21 06:00N 59°57' E 028°38'0 0.0
2018-Jun-21 05:29N 59°57' E 028°38'0 0.0
2018-Jun-21 05:00N 59°57' E 028°38'0 0.0
2018-Jun-21 04:26N 59°57' E 028°38'0 0.0
2018-Jun-21 03:59N 59°57' E 028°38'0 0.0
2018-Jun-21 03:29N 59°57' E 028°39'0 0.0
2018-Jun-21 02:56N 59°57' E 028°39'0 0.0
2018-Jun-21 02:29N 59°57' E 028°39'0 0.0
2018-Jun-21 01:59N 59°57' E 028°39'0 0.0
2018-Jun-21 01:29N 59°57' E 028°39'0 0.0
2018-Jun-21 00:59N 59°57' E 028°39'0 0.0
2018-Jun-21 00:29N 59°57' E 028°39'0 0.0
2018-Jun-20 23:59N 59°57' E 028°39'0 0.0
2018-Jun-20 23:29N 59°57' E 028°39'0 0.0
2018-Jun-20 22:59N 59°57' E 028°39'0 0.0
2018-Jun-20 22:29N 59°57' E 028°39'0 0.0
2018-Jun-20 21:59N 59°57' E 028°39'0 0.0
2018-Jun-20 21:29N 59°57' E 028°39'0 0.0
2018-Jun-20 20:59N 59°57' E 028°39'0 0.0
2018-Jun-20 20:29N 59°57' E 028°39'0 0.0
2018-Jun-20 19:59N 59°57' E 028°39'0 0.0
2018-Jun-20 19:30N 59°57' E 028°39'0 0.0
2018-Jun-20 19:00N 59°57' E 028°39'0 0.0
2018-Jun-20 18:25N 59°57' E 028°39'0 0.0
2018-Jun-20 17:51N 59°57' E 028°39'0 0.0
2018-Jun-20 17:23N 59°57' E 028°39'0 0.0
2018-Jun-20 16:53N 59°57' E 028°39'0 0.0
2018-Jun-20 16:29N 59°57' E 028°39'0 0.0
2018-Jun-20 15:53N 59°57' E 028°39'0 0.0
2018-Jun-20 15:30N 59°57' E 028°39'0 0.0
2018-Jun-20 15:00N 59°57' E 028°39'0 0.0
2018-Jun-20 14:28N 59°57' E 028°39'0 0.0
2018-Jun-20 14:00N 59°57' E 028°39'0 0.0
2018-Jun-20 13:29N 59°57' E 028°39'0 0.0
2018-Jun-20 13:00N 59°57' E 028°39'0 0.0
2018-Jun-20 12:30N 59°57' E 028°39'0 0.0
2018-Jun-20 11:59N 59°57' E 028°39'0 0.0
2018-Jun-20 11:30N 59°57' E 028°39'0 0.0
2018-Jun-20 10:59N 59°57' E 028°39'0 0.0
2018-Jun-20 10:26N 59°57' E 028°39'0 0.0
2018-Jun-20 10:00N 59°57' E 028°39'0 0.0
2018-Jun-20 09:29N 59°57' E 028°39'0 0.0
2018-Jun-20 08:59N 59°57' E 028°39'0 0.0
2018-Jun-20 08:29N 59°57' E 028°39'0 0.0
2018-Jun-20 07:57N 59°57' E 028°39'0 0.0
2018-Jun-20 07:30N 59°57' E 028°39'0 0.0
2018-Jun-20 06:59N 59°57' E 028°39'0 0.1
2018-Jun-20 06:29N 59°57' E 028°39'0 0.0
2018-Jun-20 05:59N 59°57' E 028°39'0 0.0
2018-Jun-20 05:30N 59°57' E 028°39'0 0.0
2018-Jun-20 04:56N 59°57' E 028°39'0 0.0
2018-Jun-20 04:29N 59°57' E 028°39'0 0.0
2018-Jun-20 04:00N 59°57' E 028°39'0 0.0
2018-Jun-20 03:29N 59°57' E 028°39'0 0.0
2018-Jun-20 02:59N 59°57' E 028°39'0 0.0
2018-Jun-20 02:28N 59°57' E 028°39'0 0.0
2018-Jun-20 02:00N 59°57' E 028°39'0 0.0
2018-Jun-20 01:30N 59°57' E 028°39'0 0.0
2018-Jun-20 00:58N 59°57' E 028°39'0 0.0
2018-Jun-20 00:26N 59°57' E 028°39'0 0.0
2018-Jun-19 23:59N 59°57' E 028°39'0 0.0
2018-Jun-19 23:28N 59°57' E 028°39'0 0.0
2018-Jun-19 22:58N 59°57' E 028°39'0 0.0
2018-Jun-19 22:30N 59°57' E 028°39'0 0.0
2018-Jun-19 21:57N 59°57' E 028°39'0 0.0
2018-Jun-19 21:29N 59°57' E 028°39'0 0.0
2018-Jun-19 21:00N 59°57' E 028°39'0 0.0
2018-Jun-19 20:30N 59°57' E 028°39'0 0.0
2018-Jun-19 20:00N 59°57' E 028°39'0 0.1
2018-Jun-19 19:30N 59°57' E 028°39'0 0.0
2018-Jun-19 18:59N 59°56' E 028°39'0 0.1
2018-Jun-19 18:29N 59°57' E 028°39'0 0.0
2018-Jun-19 17:55N 59°57' E 028°39'0 0.0
2018-Jun-19 17:28N 59°57' E 028°39'0 0.1
2018-Jun-19 16:59N 59°57' E 028°39'0 0.0
2018-Jun-19 16:30N 59°57' E 028°39'0 0.0
2018-Jun-19 15:59N 59°57' E 028°39'0 0.0
2018-Jun-19 15:29N 59°57' E 028°39'0 0.0
2018-Jun-19 14:59N 59°57' E 028°39'0 0.1
2018-Jun-19 14:25N 59°57' E 028°38'0 0.0
2018-Jun-19 13:57N 59°57' E 028°38'0 0.1
2018-Jun-19 13:30N 59°57' E 028°38'0 0.1
2018-Jun-19 12:51N 59°57' E 028°38'0 0.0
2018-Jun-19 12:26N 59°57' E 028°38'0 0.0
2018-Jun-19 11:58N 59°57' E 028°38'0 0.0
2018-Jun-19 11:30N 59°57' E 028°38'0 0.1
2018-Jun-19 10:56N 59°57' E 028°38'0 0.1
2018-Jun-19 10:27N 59°57' E 028°38'0 0.0
2018-Jun-19 09:58N 59°57' E 028°38'0 0.0
2018-Jun-19 09:30N 59°57' E 028°38'0 0.0
2018-Jun-19 08:59N 59°57' E 028°38'0 0.1
2018-Jun-19 08:29N 59°57' E 028°38'0 0.0
2018-Jun-19 07:59N 59°57' E 028°38'0 0.1
2018-Jun-19 07:29N 59°57' E 028°38'0 0.0
2018-Jun-19 07:00N 59°57' E 028°38'0 0.0
2018-Jun-19 06:29N 59°57' E 028°38'0 0.0
2018-Jun-19 06:00N 59°57' E 028°38'0 0.0
2018-Jun-19 05:29N 59°57' E 028°38'0 0.0
2018-Jun-19 04:59N 59°57' E 028°38'0 0.1
2018-Jun-19 04:31N 59°57' E 028°38'0 0.0
2018-Jun-19 03:59N 59°57' E 028°38'0 0.0
2018-Jun-19 03:29N 59°56' E 028°38'0 0.0
2018-Jun-19 02:59N 59°56' E 028°38'0 0.0
2018-Jun-19 02:29N 59°56' E 028°38'0 0.0
2018-Jun-19 01:56N 59°56' E 028°38'0 0.0
2018-Jun-19 01:26N 59°57' E 028°38'0 0.1
2018-Jun-19 00:50N 59°56' E 028°38'0 0.0
2018-Jun-19 00:30N 59°56' E 028°38'0 0.0
2018-Jun-18 23:50N 59°56' E 028°38'0 0.0
2018-Jun-18 23:23N 59°56' E 028°38'0 0.0
2018-Jun-18 22:53N 59°56' E 028°38'0 0.0
2018-Jun-18 22:23N 59°56' E 028°38'0 0.0
2018-Jun-18 21:59N 59°56' E 028°38'0 0.0
2018-Jun-18 21:29N 59°56' E 028°38'0 0.0
2018-Jun-18 20:59N 59°56' E 028°38'0 0.0
2018-Jun-18 20:30N 59°56' E 028°38'0 0.0
2018-Jun-18 20:00N 59°56' E 028°38'0 0.0
2018-Jun-18 19:29N 59°56' E 028°38'0 0.0
2018-Jun-18 18:56N 59°56' E 028°38'0 0.0
2018-Jun-18 18:29N 59°56' E 028°38'0 0.0
2018-Jun-18 17:59N 59°56' E 028°38'0 0.0
2018-Jun-18 17:26N 59°56' E 028°38'0 0.0
2018-Jun-18 16:59N 59°56' E 028°38'0 0.0
2018-Jun-18 16:29N 59°56' E 028°38'0 0.0
2018-Jun-18 15:59N 59°56' E 028°38'0 0.0
2018-Jun-18 15:29N 59°56' E 028°38'0 0.0
2018-Jun-18 14:59N 59°56' E 028°38'0 0.1
2018-Jun-18 14:29N 59°56' E 028°38'0 0.0
2018-Jun-18 13:59N 59°56' E 028°38'0 0.0
2018-Jun-18 13:29N 59°56' E 028°38'0 0.0
2018-Jun-18 12:59N 59°56' E 028°38'0 0.0
2018-Jun-18 12:29N 59°56' E 028°38'0 0.1
2018-Jun-18 11:59N 59°56' E 028°38'0 0.1
2018-Jun-18 11:29N 59°57' E 028°38'0 0.1
2018-Jun-18 10:53N 59°57' E 028°38'0 0.1
2018-Jun-18 10:29N 59°57' E 028°38'0 0.1
2018-Jun-18 09:59N 59°57' E 028°38'0 0.0
2018-Jun-18 09:29N 59°57' E 028°38'0 0.1
2018-Jun-18 08:59N 59°57' E 028°38'0 0.1
2018-Jun-18 08:29N 59°57' E 028°38'0 0.1
2018-Jun-18 07:58N 59°57' E 028°38'0 0.0
2018-Jun-18 07:26N 59°57' E 028°38'0 0.0
2018-Jun-18 06:56N 59°57' E 028°38'0 0.0
2018-Jun-18 06:17N 59°57' E 028°38'0 0.0
2018-Jun-18 05:56N 59°57' E 028°38'0 0.0
2018-Jun-18 05:26N 59°57' E 028°38'0 0.2
2018-Jun-18 04:59N 59°57' E 028°38'0 0.1
2018-Jun-18 04:29N 59°57' E 028°38'0 0.1
2018-Jun-18 03:59N 59°57' E 028°38'0 0.0
2018-Jun-18 03:29N 59°57' E 028°38'0 0.0
2018-Jun-18 02:59N 59°57' E 028°38'0 0.1
2018-Jun-18 02:29N 59°57' E 028°38'0 0.1
2018-Jun-18 01:59N 59°57' E 028°38'0 0.0
2018-Jun-18 01:29N 59°57' E 028°38'0 0.0
2018-Jun-18 00:59N 59°57' E 028°38'0 0.0
2018-Jun-18 00:29N 59°57' E 028°38'0 0.0
2018-Jun-17 23:59N 59°57' E 028°38'0 0.0
2018-Jun-17 23:29N 59°57' E 028°38'0 0.0
2018-Jun-17 22:59N 59°57' E 028°38'0 0.0
2018-Jun-17 22:29N 59°57' E 028°38'0 0.0
2018-Jun-17 21:59N 59°57' E 028°38'0 0.0
2018-Jun-17 21:24N 59°57' E 028°38'0 0.0
2018-Jun-17 20:50N 59°57' E 028°38'0 0.0
2018-Jun-17 20:29N 59°57' E 028°38'0 0.0
2018-Jun-17 19:59N 59°57' E 028°38'0 0.0
2018-Jun-17 19:23N 59°57' E 028°38'0 0.1
2018-Jun-17 19:00N 59°57' E 028°38'0 0.1
2018-Jun-17 18:23N 59°57' E 028°38'0 0.0
2018-Jun-17 17:53N 59°57' E 028°38'0 0.0
2018-Jun-17 17:23N 59°56' E 028°38'0 0.1
2018-Jun-17 17:00N 59°56' E 028°38'0 0.0
2018-Jun-17 16:30N 59°56' E 028°38'0 0.0
2018-Jun-17 15:56N 59°56' E 028°38'0 0.0
2018-Jun-17 15:26N 59°56' E 028°38'0 0.0
2018-Jun-17 14:56N 59°56' E 028°38'0 0.0
2018-Jun-17 14:29N 59°56' E 028°38'0 0.0
2018-Jun-17 14:00N 59°56' E 028°38'0 0.1
2018-Jun-17 13:29N 59°56' E 028°38'0 0.1
2018-Jun-17 12:59N 59°56' E 028°38'0 0.0
2018-Jun-17 12:29N 59°56' E 028°38'0 0.0
2018-Jun-17 11:59N 59°56' E 028°38'0 0.0
2018-Jun-17 11:29N 59°56' E 028°38'0 0.0
2018-Jun-17 10:59N 59°56' E 028°38'0 0.0
2018-Jun-17 10:28N 59°56' E 028°38'0 0.0
2018-Jun-17 09:59N 59°56' E 028°38'0 0.0
2018-Jun-17 09:29N 59°56' E 028°38'0 0.0
2018-Jun-17 08:59N 59°56' E 028°38'0 0.0
2018-Jun-17 08:26N 59°56' E 028°38'0 0.0
2018-Jun-17 07:59N 59°56' E 028°38'0 0.0
2018-Jun-17 07:26N 59°56' E 028°38'0 0.1
2018-Jun-17 06:56N 59°56' E 028°38'0 0.0
2018-Jun-17 06:29N 59°56' E 028°38'0 0.0
2018-Jun-17 05:59N 59°56' E 028°38'0 0.0
2018-Jun-17 05:29N 59°56' E 028°38'0 0.0
2018-Jun-17 04:58N 59°56' E 028°38'0 0.0
2018-Jun-17 04:28N 59°56' E 028°38'0 0.0
2018-Jun-17 03:53N 59°56' E 028°38'0 0.0
2018-Jun-17 03:28N 59°56' E 028°38'0 0.0
2018-Jun-17 02:56N 59°56' E 028°38'0 0.0
2018-Jun-17 02:26N 59°56' E 028°38'0 0.1
2018-Jun-17 01:56N 59°56' E 028°38'0 0.0
2018-Jun-17 01:26N 59°56' E 028°38'0 0.1
2018-Jun-17 00:56N 59°56' E 028°38'0 0.0
2018-Jun-17 00:29N 59°56' E 028°38'0 0.0
2018-Jun-16 23:59N 59°56' E 028°38'0 0.0
2018-Jun-16 23:29N 59°56' E 028°38'0 0.0
2018-Jun-16 22:59N 59°56' E 028°38'0 0.0
2018-Jun-16 22:29N 59°56' E 028°38'0 0.0
2018-Jun-16 21:59N 59°56' E 028°38'0 0.0
2018-Jun-16 21:29N 59°56' E 028°38'0 0.0
2018-Jun-16 20:59N 59°56' E 028°38'0 0.0
2018-Jun-16 20:29N 59°56' E 028°38'0 0.0
2018-Jun-16 19:59N 59°56' E 028°38'0 0.1
2018-Jun-16 19:29N 59°56' E 028°38'0 0.0
2018-Jun-16 18:59N 59°56' E 028°38'0 0.0
2018-Jun-16 18:29N 59°56' E 028°38'0 0.1
2018-Jun-16 17:59N 59°56' E 028°38'0 0.1
2018-Jun-16 17:29N 59°56' E 028°38'0 0.0
2018-Jun-16 16:57N 59°56' E 028°38'0 0.0
2018-Jun-16 16:23N 59°56' E 028°38'0 0.0
2018-Jun-16 15:59N 59°56' E 028°38'0 0.0
2018-Jun-16 15:23N 59°56' E 028°38'0 0.0
2018-Jun-16 14:59N 59°56' E 028°38'0 0.0
2018-Jun-16 14:29N 59°56' E 028°38'0 0.0
2018-Jun-16 13:56N 59°56' E 028°38'0 0.0
2018-Jun-16 13:24N 59°56' E 028°38'0 0.0
2018-Jun-16 12:57N 59°56' E 028°38'0 0.0
2018-Jun-16 12:26N 59°56' E 028°38'0 0.0
2018-Jun-16 11:56N 59°56' E 028°38'0 0.0
2018-Jun-16 11:26N 59°56' E 028°38'0 0.0
2018-Jun-16 10:56N 59°56' E 028°38'0 0.0
2018-Jun-16 10:29N 59°56' E 028°38'0 0.0
2018-Jun-16 09:59N 59°56' E 028°38'0 0.0
2018-Jun-16 09:29N 59°56' E 028°38'0 0.0
2018-Jun-16 08:59N 59°56' E 028°38'0 0.0
2018-Jun-16 08:29N 59°56' E 028°38'0 0.0
2018-Jun-16 07:59N 59°56' E 028°38'0 0.0
2018-Jun-16 07:26N 59°56' E 028°38'0 0.0
2018-Jun-16 06:59N 59°56' E 028°38'0 0.0
2018-Jun-16 06:29N 59°56' E 028°38'0 0.0
2018-Jun-16 05:59N 59°56' E 028°38'0 0.0
2018-Jun-16 05:28N 59°56' E 028°38'0 0.0
2018-Jun-16 04:59N 59°56' E 028°38'0 0.0
2018-Jun-16 04:30N 59°56' E 028°38'0 0.0
2018-Jun-16 03:59N 59°56' E 028°38'0 0.0
2018-Jun-16 03:30N 59°56' E 028°38'0 0.0
2018-Jun-16 02:57N 59°56' E 028°38'0 0.0
2018-Jun-16 02:23N 59°56' E 028°38'0 0.0
2018-Jun-16 01:53N 59°56' E 028°38'0 0.0
2018-Jun-16 01:23N 59°56' E 028°38'0 0.0
2018-Jun-16 00:50N 59°56' E 028°38'0 0.0
2018-Jun-16 00:18N 59°56' E 028°38'0 0.0
2018-Jun-16 00:00N 59°56' E 028°38'0 0.0
2018-Jun-15 23:30N 59°56' E 028°38'0 0.0
2018-Jun-15 22:59N 59°56' E 028°38'0 0.0
2018-Jun-15 22:27N 59°56' E 028°38'0 0.0
2018-Jun-15 22:00N 59°56' E 028°38'0 0.0
2018-Jun-15 21:26N 59°56' E 028°38'0 0.0
2018-Jun-15 21:00N 59°56' E 028°38'0 0.0
2018-Jun-15 20:29N 59°56' E 028°38'0 0.0
2018-Jun-15 19:59N 59°56' E 028°38'0 0.0
2018-Jun-15 19:30N 59°56' E 028°38'0 0.0
2018-Jun-15 18:59N 59°56' E 028°38'0 0.0
2018-Jun-15 18:29N 59°56' E 028°38'0 0.0
2018-Jun-15 17:59N 59°56' E 028°38'0 0.1
2018-Jun-15 17:29N 59°56' E 028°38'0 0.1
2018-Jun-15 16:59N 59°56' E 028°38'0 0.0
2018-Jun-15 16:29N 59°56' E 028°38'0 0.0
2018-Jun-15 15:59N 59°56' E 028°38'  
Track history (hours):
 
Tides and Currents Weather Stations Pressure Air Temp Water Temp Dewpoint Dewpoint Depression Visibility Wind Speed Wind Dir Waves Ship Positions

Fiorela

Last reported at 2018-Jun-25 15:30 UTC. Time now 2018-Jun-25 15:54 UTC.
Position N 59°51' E 025°10'.

Length 229 m; draft 12.7 m.

Type: Cargo ship. MMSI: 636017716.

Date/timePositionNaut miles runAvg speedWind from/ knotsBaromVisibWave heightAir tempDewpointWater temp
2018-Jun-25 15:30N 59°51' E 025°10'612.3
2018-Jun-25 15:00N 59°53' E 025°22'612.3
2018-Jun-25 14:30N 59°54' E 025°34'812.3
2018-Jun-25 13:50N 59°56' E 025°50'412.6
2018-Jun-25 13:30N 59°57' E 025°58'914.0
2018-Jun-25 12:50N 59°59' E 026°16'3 8.8
2018-Jun-25 12:30N 59°60' E 026°21'612.1
2018-Jun-25 12:00N 60°01' E 026°33'612.3
2018-Jun-25 11:31N 60°01' E 026°45'612.2
2018-Jun-25 11:00N 59°59' E 026°58'611.4
2018-Jun-25 10:30N 60°01' E 027°09'611.7
2018-Jun-25 10:00N 60°04' E 027°19'2 4.0
2018-Jun-25 09:30N 60°05' E 027°22'5 9.3
2018-Jun-25 09:00N 60°07' E 027°30'612.1
2018-Jun-25 08:30N 60°10' E 027°41'611.3
2018-Jun-25 08:00N 60°11' E 027°52'612.4
2018-Jun-25 07:30N 60°10' E 028°04'612.0
2018-Jun-25 06:59N 60°08' E 028°16'612.3
2018-Jun-25 06:30N 60°05' E 028°25'611.3
2018-Jun-25 06:00N 60°03' E 028°36'510.0
2018-Jun-25 05:31N 59°58' E 028°36'4 8.2
2018-Jun-25 05:00N 59°54' E 028°32'611.2
2018-Jun-25 04:30N 59°50' E 028°26'510.5
2018-Jun-25 04:00N 59°44' E 028°25'3 6.3
2018-Jun-25 03:31N 59°41' E 028°25'0 0.5
2018-Jun-25 03:01N 59°41' E 028°25'0 0.0
2018-Jun-25 02:31N 59°41' E 028°25'0 0.0
2018-Jun-25 02:00N 59°41' E 028°25'0 0.0
2018-Jun-25 01:21N 59°41' E 028°25'0 0.0
2018-Jun-25 01:00N 59°41' E 028°25'0 0.0
2018-Jun-25 00:21N 59°41' E 028°25'0 0.0
2018-Jun-24 23:51N 59°41' E 028°25'0 0.0
2018-Jun-24 23:21N 59°41' E 028°25'0 0.0
2018-Jun-24 22:54N 59°41' E 028°25'0 0.0
2018-Jun-24 22:24N 59°41' E 028°25'0 0.0
2018-Jun-24 21:54N 59°41' E 028°25'0 0.0
2018-Jun-24 21:27N 59°41' E 028°25'0 0.0
2018-Jun-24 20:57N 59°41' E 028°25'0 0.0
2018-Jun-24 20:27N 59°41' E 028°25'0 0.0
2018-Jun-24 19:57N 59°41' E 028°25'0 0.0
2018-Jun-24 19:27N 59°41' E 028°25'0 0.0
2018-Jun-24 18:57N 59°41' E 028°25'0 0.0
2018-Jun-24 18:27N 59°41' E 028°25'0 0.0
2018-Jun-24 17:57N 59°41' E 028°25'0 0.0
2018-Jun-24 17:30N 59°41' E 028°25'0 0.0
2018-Jun-24 17:00N 59°41' E 028°25'0 0.0
2018-Jun-24 16:30N 59°41' E 028°25'0 0.0
2018-Jun-24 16:00N 59°41' E 028°25'0 0.0
2018-Jun-24 15:30N 59°41' E 028°25'0 0.0
2018-Jun-24 15:00N 59°41' E 028°25'0 0.0
2018-Jun-24 14:30N 59°41' E 028°25'0 0.0
2018-Jun-24 14:00N 59°41' E 028°25'0 0.0
2018-Jun-24 13:30N 59°41' E 028°25'0 0.0
2018-Jun-24 13:00N 59°41' E 028°25'0 0.0
2018-Jun-24 12:30N 59°41' E 028°25'0 0.0
2018-Jun-24 12:00N 59°41' E 028°25'0 0.0
2018-Jun-24 11:30N 59°41' E 028°25'0 0.0
2018-Jun-24 10:58N 59°41' E 028°25'0 0.0
2018-Jun-24 10:21N 59°41' E 028°25'0 0.0
2018-Jun-24 09:54N 59°41' E 028°25'0 0.0
2018-Jun-24 09:29N 59°41' E 028°25'0 0.0
2018-Jun-24 09:00N 59°41' E 028°25'0 0.0
2018-Jun-24 08:29N 59°41' E 028°25'0 0.0
2018-Jun-24 07:58N 59°41' E 028°25'0 0.0
2018-Jun-24 07:29N 59°41' E 028°25'0 0.0
2018-Jun-24 07:00N 59°41' E 028°25'0 0.0
2018-Jun-24 06:24N 59°41' E 028°25'0 0.0
2018-Jun-24 05:57N 59°41' E 028°25'0 0.0
2018-Jun-24 05:28N 59°41' E 028°25'0 0.0
2018-Jun-24 05:00N 59°41' E 028°25'0 0.0
2018-Jun-24 04:30N 59°41' E 028°25'0 0.0
2018-Jun-24 04:00N 59°41' E 028°25'0 0.0
2018-Jun-24 03:30N 59°41' E 028°25'0 0.0
2018-Jun-24 03:00N 59°41' E 028°25'0 0.0
2018-Jun-24 02:30N 59°41' E 028°25'0 0.0
2018-Jun-24 02:00N 59°41' E 028°25'0 0.0
2018-Jun-24 01:28N 59°41' E 028°25'0 0.0
2018-Jun-24 00:57N 59°41' E 028°25'0 0.0
2018-Jun-24 00:30N 59°41' E 028°25'0 0.0
2018-Jun-24 00:00N 59°41' E 028°25'0 0.0
2018-Jun-23 23:30N 59°41' E 028°25'0 0.0
2018-Jun-23 23:00N 59°41' E 028°25'0 0.0
2018-Jun-23 22:30N 59°41' E 028°25'0 0.0
2018-Jun-23 22:00N 59°41' E 028°25'0 0.0
2018-Jun-23 21:21N 59°41' E 028°25'0 0.0
2018-Jun-23 21:00N 59°41' E 028°25'0 0.0
2018-Jun-23 20:30N 59°41' E 028°25'0 0.0
2018-Jun-23 19:54N 59°41' E 028°25'0 0.0
2018-Jun-23 19:24N 59°41' E 028°25'0 0.0
2018-Jun-23 18:54N 59°41' E 028°25'0 0.0
2018-Jun-23 18:24N 59°41' E 028°25'0 0.0
2018-Jun-23 17:54N 59°41' E 028°25'0 0.0
2018-Jun-23 17:24N 59°41' E 028°25'0 0.0
2018-Jun-23 16:57N 59°41' E 028°25'0 0.0
2018-Jun-23 16:27N 59°41' E 028°25'0 0.0
2018-Jun-23 15:54N 59°41' E 028°25'0 0.0
2018-Jun-23 15:27N 59°41' E 028°25'0 0.0
2018-Jun-23 14:57N 59°41' E 028°25'0 0.0
2018-Jun-23 14:27N 59°41' E 028°25'0 0.0
2018-Jun-23 14:00N 59°41' E 028°25'0 0.0
2018-Jun-23 13:30N 59°41' E 028°25'0 0.0
2018-Jun-23 13:00N 59°41' E 028°25'0 0.0
2018-Jun-23 12:30N 59°41' E 028°25'0 0.0
2018-Jun-23 12:00N 59°41' E 028°25'0 0.0
2018-Jun-23 11:30N 59°41' E 028°25'0 0.0
2018-Jun-23 11:00N 59°41' E 028°25'0 0.0
2018-Jun-23 10:30N 59°41' E 028°25'0 0.0
2018-Jun-23 09:52N 59°41' E 028°25'0 0.0
2018-Jun-23 09:30N 59°41' E 028°25'0 0.0
2018-Jun-23 09:00N 59°41' E 028°25'0 0.0
2018-Jun-23 08:30N 59°41' E 028°25'0 0.0
2018-Jun-23 08:00N 59°41' E 028°25'0 0.0
2018-Jun-23 07:21N 59°41' E 028°25'0 0.0
2018-Jun-23 06:51N 59°41' E 028°25'0 0.0
2018-Jun-23 06:24N 59°41' E 028°25'0 0.0
2018-Jun-23 05:51N 59°41' E 028°25'0 0.0
2018-Jun-23 05:24N 59°41' E 028°25'0 0.0
2018-Jun-23 04:51N 59°41' E 028°25'0 0.0
2018-Jun-23 04:24N 59°41' E 028°25'0 0.0
2018-Jun-23 03:54N 59°41' E 028°25'0 0.0
2018-Jun-23 03:27N 59°41' E 028°25'0 0.0
2018-Jun-23 02:57N 59°41' E 028°25'0 0.0
2018-Jun-23 02:24N 59°41' E 028°25'0 0.0
2018-Jun-23 01:57N 59°41' E 028°25'0 0.0
2018-Jun-23 01:27N 59°41' E 028°25'0 0.0
2018-Jun-23 00:57N 59°41' E 028°25'0 0.0
2018-Jun-23 00:30N 59°41' E 028°25'0 0.0
2018-Jun-23 00:00N 59°41' E 028°25'0 0.0
2018-Jun-22 23:27N 59°41' E 028°25'0 0.0
2018-Jun-22 23:00N 59°41' E 028°25'0 0.0
2018-Jun-22 22:30N 59°41' E 028°25'0 0.0
2018-Jun-22 22:00N 59°41' E 028°25'0 0.0
2018-Jun-22 21:30N 59°41' E 028°25'0 0.0
2018-Jun-22 21:00N 59°41' E 028°25'0 0.0
2018-Jun-22 20:27N 59°41' E 028°25'0 0.0
2018-Jun-22 20:00N 59°41' E 028°25'0 0.0
2018-Jun-22 19:30N 59°41' E 028°25'0 0.0
2018-Jun-22 19:00N 59°41' E 028°25'1 1.5
2018-Jun-22 18:30N 59°42' E 028°24'4 8.4
2018-Jun-22 18:00N 59°46' E 028°24'510.7
2018-Jun-22 17:31N 59°51' E 028°26'5 9.3
2018-Jun-22 17:00N 59°55' E 028°32'3 7.0
2018-Jun-22 16:30N 59°57' E 028°37'1 1.3
2018-Jun-22 15:59N 59°57' E 028°38'0 0.0
2018-Jun-22 15:29N 59°57' E 028°38'0 0.0
2018-Jun-22 14:59N 59°57' E 028°38'0 0.1
2018-Jun-22 14:30N 59°57' E 028°38'0 0.1
2018-Jun-22 13:59N 59°57' E 028°38'0 0.0
2018-Jun-22 13:29N 59°57' E 028°38'0 0.0
2018-Jun-22 12:57N 59°57' E 028°38'0 0.1
2018-Jun-22 12:29N 59°57' E 028°38'0 0.0
2018-Jun-22 11:59N 59°57' E 028°38'0 0.0
2018-Jun-22 11:26N 59°57' E 028°38'0 0.0
2018-Jun-22 10:59N 59°57' E 028°38'0 0.0
2018-Jun-22 10:27N 59°57' E 028°38'0 0.0
2018-Jun-22 10:00N 59°57' E 028°38'0 0.0
2018-Jun-22 09:30N 59°57' E 028°38'0 0.0
2018-Jun-22 08:59N 59°57' E 028°38'0 0.0
2018-Jun-22 08:28N 59°57' E 028°38'0 0.0
2018-Jun-22 07:58N 59°57' E 028°38'0 0.0
2018-Jun-22 07:30N 59°57' E 028°38'0 0.0
2018-Jun-22 07:00N 59°57' E 028°38'0 0.0
2018-Jun-22 06:27N 59°57' E 028°38'0 0.0
2018-Jun-22 06:00N 59°57' E 028°38'0 0.0
2018-Jun-22 05:29N 59°57' E 028°38'0 0.0
2018-Jun-22 05:00N 59°57' E 028°38'0 0.1
2018-Jun-22 04:29N 59°57' E 028°38'0 0.0
2018-Jun-22 03:59N 59°57' E 028°38'0 0.1
2018-Jun-22 03:29N 59°57' E 028°38'0 0.3
2018-Jun-22 02:59N 59°57' E 028°38'0 0.1
2018-Jun-22 02:29N 59°57' E 028°38'0 0.0
2018-Jun-22 01:59N 59°57' E 028°38'0 0.0
2018-Jun-22 01:29N 59°57' E 028°38'0 0.0
2018-Jun-22 00:59N 59°57' E 028°38'0 0.0
2018-Jun-22 00:29N 59°57' E 028°38'0 0.0
2018-Jun-22 00:00N 59°57' E 028°38'0 0.0
2018-Jun-21 23:29N 59°57' E 028°38'0 0.0
2018-Jun-21 22:57N 59°57' E 028°38'0 0.1
2018-Jun-21 22:26N 59°57' E 028°38'0 0.0
2018-Jun-21 21:59N 59°57' E 028°38'0 0.1
2018-Jun-21 21:23N 59°57' E 028°38'0 0.2
2018-Jun-21 21:01N 59°57' E 028°38'0 0.0
2018-Jun-21 20:24N 59°57' E 028°38'0 0.1
2018-Jun-21 19:53N 59°57' E 028°38'0 0.0
2018-Jun-21 19:29N 59°57' E 028°38'0 0.0
2018-Jun-21 18:56N 59°57' E 028°38'0 0.1
2018-Jun-21 18:28N 59°57' E 028°38'0 0.0
2018-Jun-21 17:56N 59°57' E 028°38'0 0.0
2018-Jun-21 17:30N 59°57' E 028°38'0 0.1
2018-Jun-21 16:59N 59°57' E 028°38'0 0.0
2018-Jun-21 16:26N 59°57' E 028°38'0 0.1
2018-Jun-21 15:59N 59°57' E 028°38'0 0.1
2018-Jun-21 15:29N 59°57' E 028°38'0 0.1
2018-Jun-21 14:59N 59°57' E 028°38'0 0.0
2018-Jun-21 14:29N 59°57' E 028°38'0 0.0
2018-Jun-21 14:01N 59°57' E 028°38'0 0.0
2018-Jun-21 13:29N 59°57' E 028°38'0 0.0
2018-Jun-21 13:00N 59°57' E 028°38'0 0.0
2018-Jun-21 12:29N 59°57' E 028°38'0 0.0
2018-Jun-21 11:59N 59°57' E 028°38'0 0.0
2018-Jun-21 11:29N 59°57' E 028°38'0 0.0
2018-Jun-21 10:59N 59°57' E 028°38'0 0.0
2018-Jun-21 10:29N 59°57' E 028°38'0 0.0
2018-Jun-21 09:59N 59°57' E 028°38'0 0.1
2018-Jun-21 09:29N 59°57' E 028°38'0 0.0
2018-Jun-21 08:50N 59°57' E 028°38'0 0.1
2018-Jun-21 08:26N 59°57' E 028°38'0 0.2
2018-Jun-21 07:59N 59°57' E 028°38'0 0.0
2018-Jun-21 07:25N 59°57' E 028°38'0 0.1
2018-Jun-21 07:00N 59°57' E 028°38'0 0.0
2018-Jun-21 06:28N 59°57' E 028°38'0 0.0
2018-Jun-21 06:00N 59°57' E 028°38'0 0.0
2018-Jun-21 05:29N 59°57' E 028°38'0 0.0
2018-Jun-21 05:00N 59°57' E 028°38'0 0.0
2018-Jun-21 04:26N 59°57' E 028°38'0 0.0
2018-Jun-21 03:59N 59°57' E 028°38'0 0.0
2018-Jun-21 03:29N 59°57' E 028°39'0 0.0
2018-Jun-21 02:56N 59°57' E 028°39'0 0.0
2018-Jun-21 02:29N 59°57' E 028°39'0 0.0
2018-Jun-21 01:59N 59°57' E 028°39'0 0.0
2018-Jun-21 01:29N 59°57' E 028°39'0 0.0
2018-Jun-21 00:59N 59°57' E 028°39'0 0.0
2018-Jun-21 00:29N 59°57' E 028°39'0 0.0
2018-Jun-20 23:59N 59°57' E 028°39'0 0.0
2018-Jun-20 23:29N 59°57' E 028°39'0 0.0
2018-Jun-20 22:59N 59°57' E 028°39'0 0.0
2018-Jun-20 22:29N 59°57' E 028°39'0 0.0
2018-Jun-20 21:59N 59°57' E 028°39'0 0.0
2018-Jun-20 21:29N 59°57' E 028°39'0 0.0
2018-Jun-20 20:59N 59°57' E 028°39'0 0.0
2018-Jun-20 20:29N 59°57' E 028°39'0 0.0
2018-Jun-20 19:59N 59°57' E 028°39'0 0.0
2018-Jun-20 19:30N 59°57' E 028°39'0 0.0
2018-Jun-20 19:00N 59°57' E 028°39'0 0.0
2018-Jun-20 18:25N 59°57' E 028°39'0 0.0
2018-Jun-20 17:51N 59°57' E 028°39'0 0.0
2018-Jun-20 17:23N 59°57' E 028°39'0 0.0
2018-Jun-20 16:53N 59°57' E 028°39'0 0.0
2018-Jun-20 16:29N 59°57' E 028°39'0 0.0
2018-Jun-20 15:53N 59°57' E 028°39'0 0.0
2018-Jun-20 15:30N 59°57' E 028°39'0 0.0
2018-Jun-20 15:00N 59°57' E 028°39'0 0.0
2018-Jun-20 14:28N 59°57' E 028°39'0 0.0
2018-Jun-20 14:00N 59°57' E 028°39'0 0.0
2018-Jun-20 13:29N 59°57' E 028°39'0 0.0
2018-Jun-20 13:00N 59°57' E 028°39'0 0.0
2018-Jun-20 12:30N 59°57' E 028°39'0 0.0
2018-Jun-20 11:59N 59°57' E 028°39'0 0.0
2018-Jun-20 11:30N 59°57' E 028°39'0 0.0
2018-Jun-20 10:59N 59°57' E 028°39'0 0.0
2018-Jun-20 10:26N 59°57' E 028°39'0 0.0
2018-Jun-20 10:00N 59°57' E 028°39'0 0.0
2018-Jun-20 09:29N 59°57' E 028°39'0 0.0
2018-Jun-20 08:59N 59°57' E 028°39'0 0.0
2018-Jun-20 08:29N 59°57' E 028°39'0 0.0
2018-Jun-20 07:57N 59°57' E 028°39'0 0.0
2018-Jun-20 07:30N 59°57' E 028°39'0 0.0
2018-Jun-20 06:59N 59°57' E 028°39'0 0.1
2018-Jun-20 06:29N 59°57' E 028°39'0 0.0
2018-Jun-20 05:59N 59°57' E 028°39'0 0.0
2018-Jun-20 05:30N 59°57' E 028°39'0 0.0
2018-Jun-20 04:56N 59°57' E 028°39'0 0.0
2018-Jun-20 04:29N 59°57' E 028°39'0 0.0
2018-Jun-20 04:00N 59°57' E 028°39'0 0.0
2018-Jun-20 03:29N 59°57' E 028°39'0 0.0
2018-Jun-20 02:59N 59°57' E 028°39'0 0.0
2018-Jun-20 02:28N 59°57' E 028°39'0 0.0
2018-Jun-20 02:00N 59°57' E 028°39'0 0.0
2018-Jun-20 01:30N 59°57' E 028°39'0 0.0
2018-Jun-20 00:58N 59°57' E 028°39'0 0.0
2018-Jun-20 00:26N 59°57' E 028°39'0 0.0
2018-Jun-19 23:59N 59°57' E 028°39'0 0.0
2018-Jun-19 23:28N 59°57' E 028°39'0 0.0
2018-Jun-19 22:58N 59°57' E 028°39'0 0.0
2018-Jun-19 22:30N 59°57' E 028°39'0 0.0
2018-Jun-19 21:57N 59°57' E 028°39'0 0.0
2018-Jun-19 21:29N 59°57' E 028°39'0 0.0
2018-Jun-19 21:00N 59°57' E 028°39'0 0.0
2018-Jun-19 20:30N 59°57' E 028°39'0 0.0
2018-Jun-19 20:00N 59°57' E 028°39'0 0.1
2018-Jun-19 19:30N 59°57' E 028°39'0 0.0
2018-Jun-19 18:59N 59°56' E 028°39'0 0.1
2018-Jun-19 18:29N 59°57' E 028°39'0 0.0
2018-Jun-19 17:55N 59°57' E 028°39'0 0.0
2018-Jun-19 17:28N 59°57' E 028°39'0 0.1
2018-Jun-19 16:59N 59°57' E 028°39'0 0.0
2018-Jun-19 16:30N 59°57' E 028°39'0 0.0
2018-Jun-19 15:59N 59°57' E 028°39'0 0.0
2018-Jun-19 15:29N 59°57' E 028°39'0 0.0
2018-Jun-19 14:59N 59°57' E 028°39'0 0.1
2018-Jun-19 14:25N 59°57' E 028°38'0 0.0
2018-Jun-19 13:57N 59°57' E 028°38'0 0.1
2018-Jun-19 13:30N 59°57' E 028°38'0 0.1
2018-Jun-19 12:51N 59°57' E 028°38'0 0.0
2018-Jun-19 12:26N 59°57' E 028°38'0 0.0
2018-Jun-19 11:58N 59°57' E 028°38'0 0.0
2018-Jun-19 11:30N 59°57' E 028°38'0 0.1
2018-Jun-19 10:56N 59°57' E 028°38'0 0.1
2018-Jun-19 10:27N 59°57' E 028°38'0 0.0
2018-Jun-19 09:58N 59°57' E 028°38'0 0.0
2018-Jun-19 09:30N 59°57' E 028°38'0 0.0
2018-Jun-19 08:59N 59°57' E 028°38'0 0.1
2018-Jun-19 08:29N 59°57' E 028°38'0 0.0
2018-Jun-19 07:59N 59°57' E 028°38'0 0.1
2018-Jun-19 07:29N 59°57' E 028°38'0 0.0
2018-Jun-19 07:00N 59°57' E 028°38'0 0.0
2018-Jun-19 06:29N 59°57' E 028°38'0 0.0
2018-Jun-19 06:00N 59°57' E 028°38'0 0.0
2018-Jun-19 05:29N 59°57' E 028°38'0 0.0
2018-Jun-19 04:59N 59°57' E 028°38'0 0.1
2018-Jun-19 04:31N 59°57' E 028°38'0 0.0
2018-Jun-19 03:59N 59°57' E 028°38'0 0.0
2018-Jun-19 03:29N 59°56' E 028°38'0 0.0
2018-Jun-19 02:59N 59°56' E 028°38'0 0.0
2018-Jun-19 02:29N 59°56' E 028°38'0 0.0
2018-Jun-19 01:56N 59°56' E 028°38'0 0.0
2018-Jun-19 01:26N 59°57' E 028°38'0 0.1
2018-Jun-19 00:50N 59°56' E 028°38'0 0.0
2018-Jun-19 00:30N 59°56' E 028°38'0 0.0
2018-Jun-18 23:50N 59°56' E 028°38'0 0.0
2018-Jun-18 23:23N 59°56' E 028°38'0 0.0
2018-Jun-18 22:53N 59°56' E 028°38'0 0.0
2018-Jun-18 22:23N 59°56' E 028°38'0 0.0
2018-Jun-18 21:59N 59°56' E 028°38'0 0.0
2018-Jun-18 21:29N 59°56' E 028°38'0 0.0
2018-Jun-18 20:59N 59°56' E 028°38'0 0.0
2018-Jun-18 20:30N 59°56' E 028°38'0 0.0
2018-Jun-18 20:00N 59°56' E 028°38'0 0.0
2018-Jun-18 19:29N 59°56' E 028°38'0 0.0
2018-Jun-18 18:56N 59°56' E 028°38'0 0.0
2018-Jun-18 18:29N 59°56' E 028°38'0 0.0
2018-Jun-18 17:59N 59°56' E 028°38'0 0.0
2018-Jun-18 17:26N 59°56' E 028°38'0 0.0
2018-Jun-18 16:59N 59°56' E 028°38'0 0.0
2018-Jun-18 16:29N 59°56' E 028°38'0 0.0
2018-Jun-18 15:59N 59°56' E 028°38'0 0.0
2018-Jun-18 15:29N 59°56' E 028°38'0 0.0
2018-Jun-18 14:59N 59°56' E 028°38'0 0.1
2018-Jun-18 14:29N 59°56' E 028°38'0 0.0
2018-Jun-18 13:59N 59°56' E 028°38'0 0.0
2018-Jun-18 13:29N 59°56' E 028°38'0 0.0
2018-Jun-18 12:59N 59°56' E 028°38'0 0.0
2018-Jun-18 12:29N 59°56' E 028°38'0 0.1
2018-Jun-18 11:59N 59°56' E 028°38'0 0.1
2018-Jun-18 11:29N 59°57' E 028°38'0 0.1
2018-Jun-18 10:53N 59°57' E 028°38'0 0.1
2018-Jun-18 10:29N 59°57' E 028°38'0 0.1
2018-Jun-18 09:59N 59°57' E 028°38'0 0.0
2018-Jun-18 09:29N 59°57' E 028°38'0 0.1
2018-Jun-18 08:59N 59°57' E 028°38'0 0.1
2018-Jun-18 08:29N 59°57' E 028°38'0 0.1
2018-Jun-18 07:58N 59°57' E 028°38'0 0.0
2018-Jun-18 07:26N 59°57' E 028°38'0 0.0
2018-Jun-18 06:56N 59°57' E 028°38'0 0.0
2018-Jun-18 06:17N 59°57' E 028°38'0 0.0
2018-Jun-18 05:56N 59°57' E 028°38'0 0.0
2018-Jun-18 05:26N 59°57' E 028°38'0 0.2
2018-Jun-18 04:59N 59°57' E 028°38'0 0.1
2018-Jun-18 04:29N 59°57' E 028°38'0 0.1
2018-Jun-18 03:59N 59°57' E 028°38'0 0.0
2018-Jun-18 03:29N 59°57' E 028°38'0 0.0
2018-Jun-18 02:59N 59°57' E 028°38'0 0.1
2018-Jun-18 02:29N 59°57' E 028°38'0 0.1
2018-Jun-18 01:59N 59°57' E 028°38'0 0.0
2018-Jun-18 01:29N 59°57' E 028°38'0 0.0
2018-Jun-18 00:59N 59°57' E 028°38'0 0.0
2018-Jun-18 00:29N 59°57' E 028°38'0 0.0
2018-Jun-17 23:59N 59°57' E 028°38'0 0.0
2018-Jun-17 23:29N 59°57' E 028°38'0 0.0
2018-Jun-17 22:59N 59°57' E 028°38'0 0.0
2018-Jun-17 22:29N 59°57' E 028°38'0 0.0
2018-Jun-17 21:59N 59°57' E 028°38'0 0.0
2018-Jun-17 21:24N 59°57' E 028°38'0 0.0
2018-Jun-17 20:50N 59°57' E 028°38'0 0.0
2018-Jun-17 20:29N 59°57' E 028°38'0 0.0
2018-Jun-17 19:59N 59°57' E 028°38'0 0.0
2018-Jun-17 19:23N 59°57' E 028°38'0 0.1
2018-Jun-17 19:00N 59°57' E 028°38'0 0.1
2018-Jun-17 18:23N 59°57' E 028°38'0 0.0
2018-Jun-17 17:53N 59°57' E 028°38'0 0.0
2018-Jun-17 17:23N 59°56' E 028°38'0 0.1
2018-Jun-17 17:00N 59°56' E 028°38'0 0.0
2018-Jun-17 16:30N 59°56' E 028°38'0 0.0
2018-Jun-17 15:56N 59°56' E 028°38'0 0.0
2018-Jun-17 15:26N 59°56' E 028°38'0 0.0
2018-Jun-17 14:56N 59°56' E 028°38'0 0.0
2018-Jun-17 14:29N 59°56' E 028°38'0 0.0
2018-Jun-17 14:00N 59°56' E 028°38'0 0.1
2018-Jun-17 13:29N 59°56' E 028°38'0 0.1
2018-Jun-17 12:59N 59°56' E 028°38'0 0.0
2018-Jun-17 12:29N 59°56' E 028°38'0 0.0
2018-Jun-17 11:59N 59°56' E 028°38'0 0.0
2018-Jun-17 11:29N 59°56' E 028°38'0 0.0
2018-Jun-17 10:59N 59°56' E 028°38'0 0.0
2018-Jun-17 10:28N 59°56' E 028°38'0 0.0
2018-Jun-17 09:59N 59°56' E 028°38'0 0.0
2018-Jun-17 09:29N 59°56' E 028°38'0 0.0
2018-Jun-17 08:59N 59°56' E 028°38'0 0.0
2018-Jun-17 08:26N 59°56' E 028°38'0 0.0
2018-Jun-17 07:59N 59°56' E 028°38'0 0.0
2018-Jun-17 07:26N 59°56' E 028°38'0 0.1
2018-Jun-17 06:56N 59°56' E 028°38'0 0.0
2018-Jun-17 06:29N 59°56' E 028°38'0 0.0
2018-Jun-17 05:59N 59°56' E 028°38'0 0.0
2018-Jun-17 05:29N 59°56' E 028°38'0 0.0
2018-Jun-17 04:58N 59°56' E 028°38'0 0.0
2018-Jun-17 04:28N 59°56' E 028°38'0 0.0
2018-Jun-17 03:53N 59°56' E 028°38'0 0.0
2018-Jun-17 03:28N 59°56' E 028°38'0 0.0
2018-Jun-17 02:56N 59°56' E 028°38'0 0.0
2018-Jun-17 02:26N 59°56' E 028°38'0 0.1
2018-Jun-17 01:56N 59°56' E 028°38'0 0.0
2018-Jun-17 01:26N 59°56' E 028°38'0 0.1
2018-Jun-17 00:56N 59°56' E 028°38'0 0.0
2018-Jun-17 00:29N 59°56' E 028°38'0 0.0
2018-Jun-16 23:59N 59°56' E 028°38'0 0.0
2018-Jun-16 23:29N 59°56' E 028°38'0 0.0
2018-Jun-16 22:59N 59°56' E 028°38'0 0.0
2018-Jun-16 22:29N 59°56' E 028°38'0 0.0
2018-Jun-16 21:59N 59°56' E 028°38'0 0.0
2018-Jun-16 21:29N 59°56' E 028°38'0 0.0
2018-Jun-16 20:59N 59°56' E 028°38'0 0.0
2018-Jun-16 20:29N 59°56' E 028°38'0 0.0
2018-Jun-16 19:59N 59°56' E 028°38'0 0.1
2018-Jun-16 19:29N 59°56' E 028°38'0 0.0
2018-Jun-16 18:59N 59°56' E 028°38'0 0.0
2018-Jun-16 18:29N 59°56' E 028°38'0 0.1
2018-Jun-16 17:59N 59°56' E 028°38'0 0.1
2018-Jun-16 17:29N 59°56' E 028°38'0 0.0
2018-Jun-16 16:57N 59°56' E 028°38'0 0.0
2018-Jun-16 16:23N 59°56' E 028°38'0 0.0
2018-Jun-16 15:59N 59°56' E 028°38'0 0.0
2018-Jun-16 15:23N 59°56' E 028°38'0 0.0
2018-Jun-16 14:59N 59°56' E 028°38'0 0.0
2018-Jun-16 14:29N 59°56' E 028°38'0 0.0
2018-Jun-16 13:56N 59°56' E 028°38'0 0.0
2018-Jun-16 13:24N 59°56' E 028°38'0 0.0
2018-Jun-16 12:57N 59°56' E 028°38'0 0.0
2018-Jun-16 12:26N 59°56' E 028°38'0 0.0
2018-Jun-16 11:56N 59°56' E 028°38'0 0.0
2018-Jun-16 11:26N 59°56' E 028°38'0 0.0
2018-Jun-16 10:56N 59°56' E 028°38'0 0.0
2018-Jun-16 10:29N 59°56' E 028°38'0 0.0
2018-Jun-16 09:59N 59°56' E 028°38'0 0.0
2018-Jun-16 09:29N 59°56' E 028°38'0 0.0
2018-Jun-16 08:59N 59°56' E 028°38'0 0.0
2018-Jun-16 08:29N 59°56' E 028°38'0 0.0
2018-Jun-16 07:59N 59°56' E 028°38'0 0.0
2018-Jun-16 07:26N 59°56' E 028°38'0 0.0
2018-Jun-16 06:59N 59°56' E 028°38'0 0.0
2018-Jun-16 06:29N 59°56' E 028°38'0 0.0
2018-Jun-16 05:59N 59°56' E 028°38'0 0.0
2018-Jun-16 05:28N 59°56' E 028°38'0 0.0
2018-Jun-16 04:59N 59°56' E 028°38'0 0.0
2018-Jun-16 04:30N 59°56' E 028°38'0 0.0
2018-Jun-16 03:59N 59°56' E 028°38'0 0.0
2018-Jun-16 03:30N 59°56' E 028°38'0 0.0
2018-Jun-16 02:57N 59°56' E 028°38'0 0.0
2018-Jun-16 02:23N 59°56' E 028°38'0 0.0
2018-Jun-16 01:53N 59°56' E 028°38'0 0.0
2018-Jun-16 01:23N 59°56' E 028°38'0 0.0
2018-Jun-16 00:50N 59°56' E 028°38'0 0.0
2018-Jun-16 00:18N 59°56' E 028°38'0 0.0
2018-Jun-16 00:00N 59°56' E 028°38'0 0.0
2018-Jun-15 23:30N 59°56' E 028°38'0 0.0
2018-Jun-15 22:59N 59°56' E 028°38'0 0.0
2018-Jun-15 22:27N 59°56' E 028°38'0 0.0
2018-Jun-15 22:00N 59°56' E 028°38'0 0.0
2018-Jun-15 21:26N 59°56' E 028°38'0 0.0
2018-Jun-15 21:00N 59°56' E 028°38'0 0.0
2018-Jun-15 20:29N 59°56' E 028°38'0 0.0
2018-Jun-15 19:59N 59°56' E 028°38'0 0.0
2018-Jun-15 19:30N 59°56' E 028°38'0 0.0
2018-Jun-15 18:59N 59°56' E 028°38'0 0.0
2018-Jun-15 18:29N 59°56' E 028°38'0 0.0
2018-Jun-15 17:59N 59°56' E 028°38'0 0.1
2018-Jun-15 17:29N 59°56' E 028°38'0 0.1
2018-Jun-15 16:59N 59°56' E 028°38'0 0.0
2018-Jun-15 16:29N 59°56' E 028°38'0 0.0
2018-Jun-15 15:59N 59°56' E 028°38'  

Dump ship's entire track history